createdAt,value
2019-05-02T00:00:36.516Z,10.22
2019-05-02T00:03:10.784Z,10.21
2019-05-02T00:05:44.342Z,10.23
2019-05-02T00:08:14.911Z,10.22
2019-05-02T00:10:49.731Z,10.22
2019-05-02T00:13:21.421Z,10.22
2019-05-02T00:15:51.725Z,10.22
2019-05-02T00:18:22.065Z,10.22
2019-05-02T00:20:51.875Z,10.18
2019-05-02T00:23:22.982Z,10.17
2019-05-02T00:26:00.934Z,10.16
2019-05-02T00:28:36.978Z,10.17
2019-05-02T00:31:11.578Z,10.15
2019-05-02T00:33:39.802Z,10.12
2019-05-02T00:36:09.481Z,10.07
2019-05-02T00:38:41.078Z,10.05
2019-05-02T00:41:10.732Z,10.06
2019-05-02T00:43:40.533Z,10.08
2019-05-02T00:46:15.163Z,10.11
2019-05-02T00:48:46.261Z,10.13
2019-05-02T00:51:15.660Z,10.12
2019-05-02T00:53:48.298Z,10.13
2019-05-02T00:56:21.294Z,10.16
2019-05-02T00:59:07.481Z,10.16
2019-05-02T01:01:40.247Z,10.13
2019-05-02T01:04:27.549Z,10.12
2019-05-02T01:06:57.876Z,10.10
2019-05-02T01:09:27.520Z,10.09
2019-05-02T01:12:25.825Z,10.11
2019-05-02T01:14:44.715Z,10.12
2019-05-02T01:17:17.443Z,10.12
2019-05-02T01:19:52.698Z,10.11
2019-05-02T01:22:26.840Z,10.12
2019-05-02T01:24:57.242Z,10.10
2019-05-02T01:27:41.008Z,10.09
2019-05-02T01:33:26.529Z,10.05
2019-05-02T01:36:08.336Z,10.04
2019-05-02T01:38:50.373Z,10.01
2019-05-02T01:41:16.919Z,9.99
2019-05-02T01:43:54.999Z,9.98
2019-05-02T01:46:26.224Z,10.01
2019-05-02T01:51:36.762Z,10.02
2019-05-02T01:54:10.078Z,10.03
2019-05-02T01:56:42.034Z,10.01
2019-05-02T01:59:11.847Z,9.99
2019-05-02T02:01:43.801Z,9.98
2019-05-02T02:04:22.247Z,10.00
2019-05-02T02:06:50.574Z,10.02
2019-05-02T02:09:21.371Z,10.00
2019-05-02T02:11:53.950Z,10.01
2019-05-02T02:14:23.910Z,10.02
2019-05-02T02:16:59.252Z,10.03
2019-05-02T02:19:39.128Z,10.04
2019-05-02T02:22:14.079Z,10.06
2019-05-02T02:25:01.016Z,10.07
2019-05-02T02:27:42.177Z,10.07
2019-05-02T02:30:17.495Z,10.05
2019-05-02T02:32:52.040Z,10.04
2019-05-02T02:35:31.223Z,10.03
2019-05-02T02:38:03.609Z,10.02
2019-05-02T02:40:35.708Z,9.99
2019-05-02T02:43:30.536Z,9.99
2019-05-02T02:46:00.045Z,9.99
2019-05-02T02:48:40.532Z,10.03
2019-05-02T02:51:09.188Z,10.06
2019-05-02T02:53:42.277Z,10.09
2019-05-02T02:56:11.384Z,10.13
2019-05-02T02:58:46.299Z,10.14
2019-05-02T03:01:27.679Z,10.15
2019-05-02T03:03:48.664Z,10.16
2019-05-02T03:06:18.192Z,10.18
2019-05-02T03:08:51.228Z,10.17
2019-05-02T03:11:29.593Z,10.20
2019-05-02T03:14:07.237Z,10.24
2019-05-02T03:16:47.102Z,10.26
2019-05-02T03:19:21.059Z,10.27
2019-05-02T03:22:01.214Z,10.26
2019-05-02T03:24:27.295Z,10.25
2019-05-02T03:26:58.714Z,10.26
2019-05-02T03:29:43.854Z,10.25
2019-05-02T03:32:16.280Z,10.24
2019-05-02T03:34:51.845Z,10.25
2019-05-02T03:37:14.794Z,10.25
2019-05-02T03:39:49.398Z,10.27
2019-05-02T03:42:19.339Z,10.25
2019-05-02T03:44:56.416Z,10.25
2019-05-02T03:47:23.989Z,10.25
2019-05-02T03:49:58.842Z,10.26
2019-05-02T03:52:36.613Z,10.26
2019-05-02T03:55:12.510Z,10.26
2019-05-02T03:57:42.533Z,10.27
2019-05-02T04:00:13.988Z,10.29
2019-05-02T04:02:44.271Z,10.30
2019-05-02T04:07:53.309Z,10.34
2019-05-02T04:10:52.529Z,10.35
2019-05-02T04:13:30.058Z,10.36
2019-05-02T04:15:59.406Z,10.35
2019-05-02T04:18:30.439Z,10.33
2019-05-02T04:21:07.751Z,10.31
2019-05-02T04:23:39.200Z,10.30
2019-05-02T04:26:12.847Z,10.28
2019-05-02T04:28:45.384Z,10.27
2019-05-02T04:31:15.821Z,10.25
2019-05-02T04:33:47.716Z,10.24
2019-05-02T04:36:19.108Z,10.24
2019-05-02T04:38:52.514Z,10.22
2019-05-02T04:41:28.799Z,10.24
2019-05-02T04:43:57.478Z,10.25
2019-05-02T04:46:30.960Z,10.27
2019-05-02T04:48:58.895Z,10.28
2019-05-02T04:51:31.916Z,10.30
2019-05-02T04:54:00.904Z,10.32
2019-05-02T04:56:31.081Z,10.34
2019-05-02T04:59:16.546Z,10.37
2019-05-02T05:01:43.470Z,10.37
2019-05-02T05:04:17.922Z,10.37
2019-05-02T05:07:00.905Z,10.38
2019-05-02T05:09:30.060Z,10.39
2019-05-02T05:12:04.607Z,10.36
2019-05-02T05:14:39.115Z,10.34
2019-05-02T05:17:25.094Z,10.33
2019-05-02T05:20:10.889Z,10.35
2019-05-02T05:22:43.858Z,10.34
2019-05-02T05:25:12.323Z,10.33
2019-05-02T05:27:44.084Z,10.34
2019-05-02T05:30:20.868Z,10.35
2019-05-02T05:32:50.502Z,10.37
2019-05-02T05:35:30.269Z,10.41
2019-05-02T05:37:54.839Z,10.42
2019-05-02T05:40:29.487Z,10.44
2019-05-02T05:43:02.701Z,10.46
2019-05-02T05:45:32.108Z,10.49
2019-05-02T05:48:01.396Z,10.51
2019-05-02T05:50:36.664Z,10.54
2019-05-02T05:53:02.645Z,10.58
2019-05-02T05:56:18.033Z,10.68
2019-05-02T05:58:25.107Z,10.70
2019-05-02T06:01:01.069Z,10.79
2019-05-02T06:03:44.646Z,10.91
2019-05-02T06:06:14.794Z,11.00
2019-05-02T06:08:41.445Z,11.14
2019-05-02T06:11:22.326Z,11.18
2019-05-02T06:13:57.493Z,11.25
2019-05-02T06:16:35.378Z,11.28
2019-05-02T06:19:13.026Z,11.33
2019-05-02T06:21:58.509Z,11.38
2019-05-02T06:24:28.245Z,11.41
2019-05-02T06:26:59.378Z,11.45
2019-05-02T06:29:51.095Z,11.50
2019-05-02T06:32:37.766Z,11.54
2019-05-02T06:34:58.423Z,11.56
2019-05-02T06:37:32.369Z,11.58
2019-05-02T06:40:03.116Z,11.56
2019-05-02T06:42:38.033Z,11.58
2019-05-02T06:45:16.281Z,11.64
2019-05-02T06:47:45.045Z,11.71
2019-05-02T06:50:14.569Z,11.77
2019-05-02T06:52:49.915Z,11.86
2019-05-02T06:55:20.374Z,11.95
2019-05-02T06:57:57.129Z,12.07
2019-05-02T07:00:35.726Z,12.19
2019-05-02T07:02:57.174Z,12.31
2019-05-02T07:05:27.351Z,12.42
2019-05-02T07:07:58.184Z,12.57
2019-05-02T07:10:37.885Z,12.67
2019-05-02T07:13:10.739Z,12.74
2019-05-02T07:15:50.651Z,12.76
2019-05-02T07:18:23.794Z,12.82
2019-05-02T07:20:59.294Z,12.89
2019-05-02T07:23:37.709Z,13.01
2019-05-02T07:26:08.641Z,13.10
2019-05-02T07:28:45.058Z,13.21
2019-05-02T07:31:13.915Z,13.28
2019-05-02T07:33:44.403Z,13.33
2019-05-02T07:36:17.366Z,13.41
2019-05-02T07:39:05.026Z,13.51
2019-05-02T07:41:30.288Z,13.62
2019-05-02T07:44:02.876Z,13.80
2019-05-02T07:46:35.438Z,13.98
2019-05-02T07:49:09.009Z,14.22
2019-05-02T07:51:39.466Z,14.46
2019-05-02T07:54:19.354Z,14.62
2019-05-02T07:56:54.682Z,14.78
2019-05-02T07:59:32.259Z,14.85
2019-05-02T08:02:20.200Z,14.91
2019-05-02T08:04:49.114Z,14.90
2019-05-02T08:07:21.550Z,14.87
2019-05-02T08:10:03.815Z,14.85
2019-05-02T08:12:34.011Z,14.87
2019-05-02T08:15:13.186Z,14.92
2019-05-02T08:17:55.210Z,14.95
2019-05-02T08:20:27.439Z,14.99
2019-05-02T08:22:56.656Z,15.05
2019-05-02T08:25:27.507Z,15.06
2019-05-02T08:27:58.457Z,14.93
2019-05-02T08:30:35.333Z,15.00
2019-05-02T08:33:19.561Z,15.37
2019-05-02T08:35:55.249Z,15.75
2019-05-02T08:38:27.404Z,16.10
2019-05-02T08:40:58.715Z,16.27
2019-05-02T08:43:31.197Z,16.57
2019-05-02T08:46:23.195Z,16.40
2019-05-02T08:48:45.229Z,16.17
2019-05-02T08:51:13.133Z,15.91
2019-05-02T08:53:44.591Z,15.76
2019-05-02T08:59:10.085Z,15.56
2019-05-02T09:01:44.717Z,15.49
2019-05-02T09:04:15.495Z,15.56
2019-05-02T09:06:47.848Z,15.56
2019-05-02T09:09:28.033Z,15.48
2019-05-02T09:12:08.921Z,15.42
2019-05-02T09:14:27.367Z,15.31
2019-05-02T09:17:00.199Z,15.27
2019-05-02T09:19:34.761Z,15.23
2019-05-02T09:22:13.247Z,15.22
2019-05-02T09:24:46.955Z,15.24
2019-05-02T09:27:22.415Z,15.34
2019-05-02T09:29:55.920Z,15.38
2019-05-02T09:32:32.300Z,15.38
2019-05-02T09:35:06.207Z,15.35
2019-05-02T09:37:33.925Z,15.30
2019-05-02T09:40:06.903Z,15.23
2019-05-02T09:42:36.697Z,15.19
2019-05-02T09:45:12.171Z,15.12
2019-05-02T09:47:56.646Z,15.10
2019-05-02T09:50:20.554Z,15.07
2019-05-02T09:52:52.424Z,15.05
2019-05-02T09:55:23.051Z,15.06
2019-05-02T09:57:55.739Z,15.09
2019-05-02T10:00:32.265Z,15.05
2019-05-02T10:03:02.660Z,15.00
2019-05-02T10:05:43.053Z,14.91
2019-05-02T10:08:10.743Z,14.85
2019-05-02T10:10:45.793Z,14.78
2019-05-02T10:13:15.996Z,14.75
2019-05-02T10:15:46.729Z,14.72
2019-05-02T10:18:30.025Z,14.59
2019-05-02T10:20:58.326Z,14.50
2019-05-02T10:23:39.478Z,14.38
2019-05-02T10:26:14.655Z,14.30
2019-05-02T10:28:56.519Z,14.21
2019-05-02T10:31:41.956Z,14.13
2019-05-02T10:34:16.325Z,14.07
2019-05-02T10:36:45.212Z,13.94
2019-05-02T10:39:15.763Z,13.83
2019-05-02T10:41:46.747Z,13.76
2019-05-02T10:44:19.335Z,13.69
2019-05-02T10:46:56.452Z,13.63
2019-05-02T10:49:33.218Z,13.56
2019-05-02T10:52:04.539Z,13.45
2019-05-02T10:54:37.500Z,13.36
2019-05-02T10:57:05.852Z,13.30
2019-05-02T10:59:36.218Z,13.28
2019-05-02T11:02:12.885Z,13.29
2019-05-02T11:04:44.146Z,13.30
2019-05-02T11:07:17.215Z,13.29
2019-05-02T11:09:46.074Z,13.28
2019-05-02T11:12:23.963Z,13.24
2019-05-02T11:14:56.711Z,13.26
2019-05-02T11:17:32.436Z,13.21
2019-05-02T11:20:07.701Z,13.16
2019-05-02T11:22:42.864Z,13.08
2019-05-02T11:25:14.126Z,13.04
2019-05-02T11:27:44.576Z,13.00
2019-05-02T11:30:22.295Z,12.97
2019-05-02T11:32:52.016Z,12.93
2019-05-02T11:35:23.226Z,12.90
2019-05-02T11:37:56.694Z,12.91
2019-05-02T11:40:28.151Z,12.88
2019-05-02T11:43:02.782Z,12.90
2019-05-02T11:45:36.354Z,12.86
2019-05-02T11:48:09.612Z,12.73
2019-05-02T11:50:37.525Z,12.68
2019-05-02T11:53:22.310Z,12.65
2019-05-02T11:55:45.763Z,12.64
2019-05-02T11:58:15.548Z,12.62
2019-05-02T12:00:49.531Z,12.62
2019-05-02T12:03:32.808Z,12.66
2019-05-02T12:06:01.978Z,12.65
2019-05-02T12:08:47.700Z,12.69
2019-05-02T12:11:13.955Z,12.73
2019-05-02T12:13:47.236Z,12.72
2019-05-02T12:16:16.327Z,12.75
2019-05-02T12:18:50.502Z,12.79
2019-05-02T12:21:22.951Z,12.80
2019-05-02T12:23:57.356Z,12.81
2019-05-02T12:26:28.536Z,12.81
2019-05-02T12:29:02.541Z,12.83
2019-05-02T12:31:42.757Z,12.90
2019-05-02T12:34:28.633Z,12.95
2019-05-02T12:36:55.585Z,13.04
2019-05-02T12:39:42.534Z,13.07
2019-05-02T12:42:12.945Z,13.05
2019-05-02T12:44:43.677Z,13.10
2019-05-02T12:47:17.653Z,13.15
2019-05-02T12:49:49.312Z,13.17
2019-05-02T12:52:27.629Z,13.22
2019-05-02T12:54:56.785Z,13.27
2019-05-02T12:57:38.953Z,13.30
2019-05-02T13:00:02.875Z,13.39
2019-05-02T13:02:32.631Z,13.47
2019-05-02T13:05:07.346Z,13.55
2019-05-02T13:07:37.796Z,13.68
2019-05-02T13:10:11.819Z,13.87
2019-05-02T13:12:45.459Z,13.97
2019-05-02T13:15:17.699Z,14.12
2019-05-02T13:17:52.193Z,14.22
2019-05-02T13:20:25.071Z,14.33
2019-05-02T13:23:06.065Z,14.52
2019-05-02T13:25:42.394Z,14.70
2019-05-02T13:28:17.164Z,14.97
2019-05-02T13:31:07.893Z,15.02
2019-05-02T13:33:57.954Z,15.19
2019-05-02T13:36:43.817Z,15.13
2019-05-02T13:39:38.435Z,15.05
2019-05-02T13:42:06.217Z,14.98
2019-05-02T13:44:49.098Z,14.86
2019-05-02T13:47:24.983Z,14.99
2019-05-02T13:50:00.883Z,15.16
2019-05-02T13:52:28.903Z,15.19
2019-05-02T13:55:07.678Z,15.15
2019-05-02T13:57:47.144Z,15.06
2019-05-02T14:00:19.909Z,15.28
2019-05-02T14:02:54.302Z,15.65
2019-05-02T14:05:31.751Z,15.72
2019-05-02T14:08:27.539Z,15.78
2019-05-02T14:11:01.943Z,15.67
2019-05-02T14:13:32.451Z,15.63
2019-05-02T14:16:13.142Z,15.60
2019-05-02T14:18:47.280Z,15.53
2019-05-02T14:21:20.001Z,15.85
2019-05-02T14:23:54.003Z,15.74
2019-05-02T14:26:30.279Z,15.55
2019-05-02T14:29:00.035Z,15.40
2019-05-02T14:31:29.142Z,15.32
2019-05-02T14:34:16.217Z,15.28
2019-05-02T14:36:58.905Z,15.16
2019-05-02T14:39:25.227Z,14.97
2019-05-02T14:41:53.847Z,14.84
2019-05-02T14:44:50.782Z,14.75
2019-05-02T14:46:59.407Z,14.66
2019-05-02T14:49:45.079Z,14.61
2019-05-02T14:52:18.635Z,14.59
2019-05-02T14:54:49.546Z,14.51
2019-05-02T14:57:27.123Z,14.60
2019-05-02T14:59:59.073Z,14.63
2019-05-02T15:02:39.183Z,14.62
2019-05-02T15:05:12.684Z,14.67
2019-05-02T15:07:42.834Z,14.72
2019-05-02T15:10:13.564Z,14.71
2019-05-02T15:12:58.960Z,14.72
2019-05-02T15:15:28.035Z,14.71
2019-05-02T15:17:56.976Z,14.64
2019-05-02T15:20:36.568Z,14.71
2019-05-02T15:23:02.660Z,14.83
2019-05-02T15:25:38.126Z,14.69
2019-05-02T15:28:22.853Z,14.61
2019-05-02T15:31:11.702Z,14.60
2019-05-02T15:33:42.491Z,14.63
2019-05-02T15:36:14.574Z,14.67
2019-05-02T15:38:47.259Z,14.63
2019-05-02T15:41:22.876Z,14.45
2019-05-02T15:43:52.935Z,14.35
2019-05-02T15:46:28.127Z,14.25
2019-05-02T15:49:07.322Z,14.33
2019-05-02T15:51:38.059Z,14.65
2019-05-02T15:54:12.381Z,14.97
2019-05-02T15:57:03.683Z,15.10
2019-05-02T15:59:45.054Z,15.00
2019-05-02T16:02:17.507Z,14.95
2019-05-02T16:04:48.289Z,14.98
2019-05-02T16:07:22.494Z,15.24
2019-05-02T16:10:01.178Z,15.28
2019-05-02T16:12:35.974Z,15.09
2019-05-02T16:15:13.592Z,14.88
2019-05-02T16:17:39.077Z,14.68
2019-05-02T16:20:33.723Z,14.56
2019-05-02T16:23:02.556Z,14.74
2019-05-02T16:25:37.041Z,15.02
2019-05-02T16:28:10.186Z,15.13
2019-05-02T16:30:47.583Z,15.32
2019-05-02T16:33:20.741Z,15.32
2019-05-02T16:35:53.471Z,15.54
2019-05-02T16:38:26.800Z,15.72
2019-05-02T16:40:56.368Z,15.68
2019-05-02T16:43:34.657Z,15.53
2019-05-02T16:46:06.553Z,15.36
2019-05-02T16:48:37.757Z,15.15
2019-05-02T16:51:27.688Z,15.00
2019-05-02T16:53:37.780Z,14.83
2019-05-02T16:56:19.349Z,14.64
2019-05-02T16:58:48.869Z,14.39
2019-05-02T17:01:26.579Z,14.11
2019-05-02T17:03:49.393Z,14.06
2019-05-02T17:06:22.464Z,14.19
2019-05-02T17:08:59.141Z,14.15
2019-05-02T17:11:41.956Z,13.93
2019-05-02T17:14:12.070Z,13.75
2019-05-02T17:16:42.120Z,13.55
2019-05-02T17:19:12.310Z,13.36
2019-05-02T17:21:53.952Z,13.27
2019-05-02T17:24:22.672Z,13.13
2019-05-02T17:26:53.666Z,13.20
2019-05-02T17:29:28.911Z,13.17
2019-05-02T17:31:59.352Z,13.10
2019-05-02T17:34:30.784Z,13.08
2019-05-02T17:37:06.223Z,13.09
2019-05-02T17:39:31.105Z,13.10
2019-05-02T17:42:06.379Z,13.16
2019-05-02T17:44:35.500Z,13.12
2019-05-02T17:47:05.025Z,13.09
2019-05-02T17:49:42.670Z,13.06
2019-05-02T17:52:19.774Z,12.98
2019-05-02T17:54:47.019Z,12.91
2019-05-02T17:57:16.170Z,12.79
2019-05-02T17:59:45.609Z,12.72
2019-05-02T18:02:16.021Z,12.64
2019-05-02T18:04:46.554Z,12.56
2019-05-02T18:07:18.122Z,12.50
2019-05-02T18:09:46.964Z,12.49
2019-05-02T18:12:16.392Z,12.45
2019-05-02T18:14:45.823Z,12.35
2019-05-02T18:17:14.932Z,12.25
2019-05-02T18:19:44.494Z,12.11
2019-05-02T18:22:26.234Z,11.96
2019-05-02T18:24:57.862Z,11.80
2019-05-02T18:27:26.969Z,11.65
2019-05-02T18:29:56.083Z,11.51
2019-05-02T18:32:26.324Z,11.42
2019-05-02T18:34:56.829Z,11.35
2019-05-02T18:37:27.059Z,11.29
2019-05-02T18:39:56.159Z,11.21
2019-05-02T18:42:25.715Z,11.14
2019-05-02T18:44:58.256Z,11.05
2019-05-02T18:47:29.809Z,10.98
2019-05-02T18:50:06.236Z,10.93
2019-05-02T18:52:42.913Z,10.87
2019-05-02T18:55:09.868Z,10.79
2019-05-02T18:57:38.991Z,10.72
2019-05-02T19:00:12.216Z,10.67
2019-05-02T19:02:42.448Z,10.61
2019-05-02T19:05:19.269Z,10.57
2019-05-02T19:07:47.375Z,10.51
2019-05-02T19:10:15.571Z,10.49
2019-05-02T19:12:44.712Z,10.46
2019-05-02T19:15:15.733Z,10.46
2019-05-02T19:17:44.835Z,10.47
2019-05-02T19:20:28.953Z,10.46
2019-05-02T19:22:58.076Z,10.45
2019-05-02T19:25:27.196Z,10.44
2019-05-02T19:27:59.358Z,10.46
2019-05-02T19:30:32.972Z,10.47
2019-05-02T19:33:07.652Z,10.45
2019-05-02T19:35:37.676Z,10.46
2019-05-02T19:38:17.121Z,10.45
2019-05-02T19:40:44.060Z,10.46
2019-05-02T19:43:14.798Z,10.47
2019-05-02T19:45:45.805Z,10.48
2019-05-02T19:48:14.933Z,10.49
2019-05-02T19:50:44.237Z,10.50
2019-05-02T19:53:18.026Z,10.49
2019-05-02T19:55:44.234Z,10.46
2019-05-02T19:58:13.335Z,10.48
2019-05-02T20:00:46.249Z,10.50
2019-05-02T20:03:21.395Z,10.52
2019-05-02T20:05:44.348Z,10.50
2019-05-02T20:08:14.846Z,10.51
2019-05-02T20:10:44.265Z,10.52
2019-05-02T20:13:13.376Z,10.51
2019-05-02T20:15:44.153Z,10.48
2019-05-02T20:18:13.275Z,10.47
2019-05-02T20:21:05.017Z,10.45
2019-05-02T20:23:35.654Z,10.39
2019-05-02T20:26:09.410Z,10.34
2019-05-02T20:28:36.388Z,10.32
2019-05-02T20:31:05.587Z,10.29
2019-05-02T20:33:34.704Z,10.21
2019-05-02T20:36:04.068Z,10.17
2019-05-02T20:38:33.433Z,10.14
2019-05-02T20:41:02.991Z,10.10
2019-05-02T20:43:32.435Z,10.11
2019-05-02T20:46:02.602Z,10.14
2019-05-02T20:48:32.337Z,10.14
2019-05-02T20:51:02.662Z,10.16
2019-05-02T20:53:34.226Z,10.19
2019-05-02T20:56:03.334Z,10.21
2019-05-02T20:58:32.694Z,10.22
2019-05-02T21:01:07.712Z,10.20
2019-05-02T21:03:32.700Z,10.15
2019-05-02T21:06:06.330Z,10.08
2019-05-02T21:08:41.908Z,10.04
2019-05-02T21:11:20.148Z,9.96
2019-05-02T21:13:49.303Z,9.84
2019-05-02T21:16:28.466Z,9.75
2019-05-02T21:19:01.898Z,9.67
2019-05-02T21:21:32.469Z,9.61
2019-05-02T21:24:24.626Z,9.60
2019-05-02T21:26:45.160Z,9.60
2019-05-02T21:29:14.396Z,9.58
2019-05-02T21:31:44.096Z,9.54
2019-05-02T21:34:13.355Z,9.49
2019-05-02T21:36:44.830Z,9.48
2019-05-02T21:39:14.063Z,9.50
2019-05-02T21:41:43.324Z,9.51
2019-05-02T21:44:13.116Z,9.50
2019-05-02T21:46:42.608Z,9.50
2019-05-02T21:49:15.039Z,9.50
2019-05-02T21:51:53.183Z,9.45
2019-05-02T21:54:38.381Z,9.46
2019-05-02T21:57:13.287Z,9.51
2019-05-02T21:59:42.620Z,9.55
2019-05-02T22:02:12.592Z,9.54
2019-05-02T22:04:54.398Z,9.53
2019-05-02T22:07:19.252Z,9.50
2019-05-02T22:09:48.414Z,9.50
2019-05-02T22:12:17.582Z,9.50
2019-05-02T22:14:52.761Z,9.52
2019-05-02T22:17:21.572Z,9.51
2019-05-02T22:19:50.064Z,9.50
2019-05-02T22:22:19.193Z,9.52
2019-05-02T22:24:48.387Z,9.51
2019-05-02T22:27:29.616Z,9.51
2019-05-02T22:29:58.755Z,9.53
2019-05-02T22:32:27.924Z,9.52
2019-05-02T22:34:57.085Z,9.49
2019-05-02T22:37:26.410Z,9.45
2019-05-02T22:39:57.208Z,9.45
2019-05-02T22:42:26.371Z,9.42
2019-05-02T22:44:55.572Z,9.41
2019-05-02T22:47:24.992Z,9.41
2019-05-02T22:49:54.149Z,9.43
2019-05-02T22:52:23.347Z,9.44
2019-05-02T22:54:52.527Z,9.45
2019-05-02T22:57:22.547Z,9.42
2019-05-02T22:59:51.876Z,9.43
2019-05-02T23:02:22.001Z,9.42
2019-05-02T23:04:52.629Z,9.38
2019-05-02T23:07:22.716Z,9.34
2019-05-02T23:09:52.722Z,9.31
2019-05-02T23:12:24.806Z,9.25
2019-05-02T23:14:53.005Z,9.20
2019-05-02T23:17:23.182Z,9.16
2019-05-02T23:19:52.848Z,9.12
2019-05-02T23:22:22.178Z,9.10
2019-05-02T23:24:52.980Z,9.06
2019-05-02T23:27:23.781Z,9.07
2019-05-02T23:29:53.246Z,9.08
2019-05-02T23:32:23.834Z,9.09
2019-05-02T23:34:53.057Z,9.10
2019-05-02T23:37:22.290Z,9.14
2019-05-02T23:39:52.275Z,9.11
2019-05-02T23:42:21.935Z,9.09
2019-05-02T23:44:51.890Z,9.10
2019-05-02T23:47:22.434Z,9.10
2019-05-02T23:49:52.162Z,9.10
2019-05-02T23:52:22.450Z,9.09
2019-05-02T23:54:52.558Z,9.06
2019-05-02T23:57:22.986Z,9.06
2019-05-02T23:59:52.292Z,9.07
